Time;durP1;ratioP1;P1;durP2;ratioP2;P2;SDS_P1;SDS_P2;PMS_P1;PMS_P2;Temp;Humidity;BMP_temperature;BMP_pressure;BME280_temperature;BME280_humidity;BME280_pressure;Samples;Min_cycle;Max_cycle;Signal;HPM_P1;HPM_P2
2022/12/18 00:02:16;;;;;;;10.57;7.82;;;1.00;58.30;;;;;;4977814;28;20057;-77
2022/12/18 00:05:00;;;;;;;11.95;7.63;;;1.00;58.40;;;;;;4965075;28;20065;-77
2022/12/18 00:07:45;;;;;;;14.63;8.48;;;1.00;58.40;;;;;;4968640;28;20073;-76
2022/12/18 00:10:29;;;;;;;11.20;7.88;;;1.00;58.40;;;;;;4985069;28;20096;-78
2022/12/18 00:13:14;;;;;;;10.23;7.03;;;1.00;58.50;;;;;;4970784;28;20267;-77
2022/12/18 00:16:04;;;;;;;10.35;7.88;;;0.90;58.30;;;;;;4981083;28;20057;-76
2022/12/18 00:18:51;;;;;;;10.70;7.53;;;0.90;58.30;;;;;;4982613;28;20501;-76
2022/12/18 00:21:36;;;;;;;9.23;8.02;;;0.90;58.40;;;;;;4978464;28;20098;-76
2022/12/18 00:24:21;;;;;;;13.13;8.70;;;0.80;58.20;;;;;;4984025;28;20045;-77
2022/12/18 00:27:05;;;;;;;11.02;7.88;;;0.80;58.20;;;;;;4984066;28;20049;-76
2022/12/18 00:29:50;;;;;;;8.18;6.97;;;0.80;58.20;;;;;;4980576;28;20045;-77
2022/12/18 00:32:35;;;;;;;10.15;7.32;;;0.80;58.20;;;;;;4979532;28;20454;-74
2022/12/18 00:35:20;;;;;;;10.10;7.60;;;0.80;58.20;;;;;;4983662;28;20113;-76
2022/12/18 00:38:06;;;;;;;12.40;7.47;;;0.80;58.20;;;;;;4982283;28;20093;-77
2022/12/18 00:40:50;;;;;;;9.70;6.95;;;0.80;58.30;;;;;;4957266;28;20069;-77
2022/12/18 00:43:36;;;;;;;10.45;6.95;;;0.80;58.20;;;;;;4982058;28;20049;-77
2022/12/18 00:46:20;;;;;;;10.55;7.45;;;0.80;58.30;;;;;;4982258;28;20165;-77
2022/12/18 00:49:06;;;;;;;8.77;7.18;;;0.80;58.30;;;;;;4983293;28;20064;-75
2022/12/18 00:51:51;;;;;;;9.27;7.07;;;0.80;58.30;;;;;;4982426;28;20504;-77
2022/12/18 00:54:35;;;;;;;11.82;7.80;;;0.80;58.30;;;;;;4978293;28;20049;-77
2022/12/18 00:57:20;;;;;;;11.05;7.22;;;0.80;58.30;;;;;;4982634;28;20090;-75
2022/12/18 01:00:07;;;;;;;9.52;7.03;;;0.80;58.30;;;;;;4982765;28;20512;-75
2022/12/18 01:02:53;;;;;;;11.85;7.30;;;0.80;58.30;;;;;;4983505;28;20053;-79
2022/12/18 01:05:40;;;;;;;14.07;8.80;;;0.80;58.40;;;;;;4989856;28;20528;-75
2022/12/18 01:08:25;;;;;;;16.15;8.20;;;0.90;59.20;;;;;;4983299;28;20084;-75
2022/12/18 01:11:15;;;;;;;11.05;7.45;;;1.10;59.30;;;;;;4996044;28;20544;-76
2022/12/18 01:14:00;;;;;;;9.13;7.57;;;1.30;59.30;;;;;;4980438;28;20065;-76
2022/12/18 01:16:44;;;;;;;10.40;6.85;;;1.40;59.20;;;;;;4981266;28;20045;-75
2022/12/18 01:19:30;;;;;;;10.35;7.35;;;1.40;59.10;;;;;;4995682;28;20081;-76
2022/12/18 01:22:14;;;;;;;9.95;7.10;;;1.40;59.10;;;;;;4980366;28;20548;-76
2022/12/18 01:24:59;;;;;;;9.77;6.80;;;1.40;59.10;;;;;;4975860;28;20406;-76
2022/12/18 01:27:43;;;;;;;8.07;6.55;;;1.30;59.00;;;;;;4968375;28;20113;-76
2022/12/18 01:30:28;;;;;;;7.95;6.40;;;1.30;59.10;;;;;;4992235;28;20069;-74
2022/12/18 01:33:12;;;;;;;10.15;7.00;;;1.30;59.20;;;;;;4982173;28;20778;-75
2022/12/18 01:35:57;;;;;;;10.57;7.43;;;1.30;59.30;;;;;;4981586;28;20544;-75
2022/12/18 01:38:41;;;;;;;9.52;7.60;;;1.20;59.20;;;;;;4980137;28;20053;-75
2022/12/18 01:42:01;;;;;;;8.95;7.40;;;1.20;59.20;;;;;;4983156;28;20061;-75
2022/12/18 01:44:56;;;;;;;9.48;7.40;;;1.20;59.30;;;;;;4980544;28;20101;-75
2022/12/18 01:47:41;;;;;;;7.63;6.78;;;1.10;59.20;;;;;;4981469;28;20320;-74
2022/12/18 01:50:31;;;;;;;8.45;7.47;;;1.10;59.20;;;;;;4979662;28;20495;-75
2022/12/18 01:53:20;;;;;;;8.25;6.55;;;1.10;59.20;;;;;;4983403;28;20057;-75
2022/12/18 01:56:05;;;;;;;8.55;7.13;;;1.10;59.30;;;;;;4986807;28;20493;-76
2022/12/18 01:59:05;;;;;;;10.13;7.45;;;1.10;59.30;;;;;;4974104;28;20057;-76
2022/12/18 02:01:49;;;;;;;8.20;7.20;;;1.00;59.20;;;;;;4985000;28;20313;-76
2022/12/18 02:04:34;;;;;;;12.00;7.95;;;1.00;59.20;;;;;;4986482;28;20045;-77
2022/12/18 02:07:57;;;;;;;10.55;6.88;;;1.00;59.20;;;;;;4978529;28;20105;-75
2022/12/18 02:11:12;;;;;;;8.30;7.32;;;1.00;59.20;;;;;;4977884;28;20041;-76
2022/12/18 02:14:07;;;;;;;9.98;7.28;;;0.90;59.10;;;;;;4982990;28;20458;-75
2022/12/18 02:17:20;;;;;;;10.55;6.93;;;0.90;59.10;;;;;;4976692;28;20139;-76
2022/12/18 02:20:16;;;;;;;10.35;7.18;;;0.90;59.10;;;;;;4969475;28;20150;-76
2022/12/18 02:23:10;;;;;;;8.50;6.38;;;0.90;59.10;;;;;;4985434;28;20478;-77
2022/12/18 02:26:14;;;;;;;8.15;6.30;;;0.90;59.10;;;;;;4980907;28;20529;-77
2022/12/18 02:29:15;;;;;;;10.25;6.72;;;0.90;59.10;;;;;;4977206;28;20682;-77
2022/12/18 02:32:02;;;;;;;8.85;7.13;;;0.90;59.10;;;;;;4975823;28;20053;-77
2022/12/18 02:34:48;;;;;;;7.90;6.70;;;0.90;59.10;;;;;;4985773;28;20037;-76
2022/12/18 02:37:35;;;;;;;16.17;6.90;;;0.90;59.10;;;;;;4985439;28;20963;-77
2022/12/18 02:40:26;;;;;;;7.97;6.63;;;0.90;59.10;;;;;;4984786;28;20524;-77
2022/12/18 02:43:13;;;;;;;12.02;7.82;;;0.90;59.10;;;;;;4984415;28;20037;-76
2022/12/18 02:46:00;;;;;;;14.13;7.40;;;0.90;59.60;;;;;;4985245;28;20050;-77
2022/12/18 02:48:49;;;;;;;10.80;7.63;;;0.90;59.10;;;;;;5004027;28;20064;-76
2022/12/18 02:51:50;;;;;;;9.93;7.32;;;1.00;59.20;;;;;;5021344;28;20462;-76
2022/12/18 02:54:51;;;;;;;10.02;6.90;;;1.00;59.30;;;;;;5006097;28;20049;-76
2022/12/18 02:57:40;;;;;;;11.10;8.00;;;1.00;59.30;;;;;;5023300;28;20036;-75
2022/12/18 03:00:36;;;;;;;8.77;7.05;;;1.00;59.20;;;;;;5007082;28;20088;-76
2022/12/18 03:03:31;;;;;;;10.90;7.05;;;1.00;59.20;;;;;;5024168;28;20156;-76
2022/12/18 03:06:24;;;;;;;8.13;6.90;;;1.00;59.20;;;;;;5027554;28;20097;-77
2022/12/18 03:09:13;;;;;;;8.05;6.50;;;1.10;59.30;;;;;;5026381;28;20397;-77
2022/12/18 03:12:26;;;;;;;11.55;7.07;;;1.10;59.30;;;;;;5006081;28;20519;-77
2022/12/18 03:15:22;;;;;;;11.48;7.93;;;1.10;59.30;;;;;;5015513;28;20068;-77
2022/12/18 03:18:35;;;;;;;9.40;6.40;;;1.20;59.40;;;;;;5006389;28;20048;-77
2022/12/18 03:21:28;;;;;;;8.07;6.57;;;1.20;59.30;;;;;;5023575;28;20129;-77
2022/12/18 03:24:14;;;;;;;9.52;8.23;;;1.30;59.40;;;;;;5011042;28;20088;-77
2022/12/18 03:27:03;;;;;;;11.95;6.97;;;1.30;59.30;;;;;;5027814;28;20095;-77
2022/12/18 03:30:16;;;;;;;9.00;6.65;;;1.40;59.50;;;;;;5006261;28;20044;-77
2022/12/18 03:33:09;;;;;;;9.75;6.90;;;1.40;59.50;;;;;;5014284;28;20082;-77
2022/12/18 03:35:56;;;;;;;13.07;7.38;;;1.50;59.60;;;;;;5002232;28;20064;-76
2022/12/18 03:38:40;;;;;;;8.25;7.03;;;1.50;59.50;;;;;;5024866;28;20092;-76
2022/12/18 03:41:42;;;;;;;9.30;7.47;;;1.50;59.50;;;;;;5028100;28;20056;-76
2022/12/18 03:44:45;;;;;;;11.02;8.00;;;1.50;59.60;;;;;;5017556;28;20044;-76
2022/12/18 03:47:38;;;;;;;14.43;8.00;;;1.60;59.70;;;;;;5013151;28;20214;-77
2022/12/18 03:50:49;;;;;;;10.55;7.57;;;1.60;59.70;;;;;;5025909;28;20035;-77
2022/12/18 03:53:48;;;;;;;10.60;6.82;;;1.70;59.90;;;;;;5026762;28;20126;-77
2022/12/18 03:56:40;;;;;;;10.73;8.60;;;1.70;59.90;;;;;;5012617;28;20091;-77
2022/12/18 03:59:30;;;;;;;13.30;7.80;;;1.70;60.40;;;;;;5006785;28;20096;-77
2022/12/18 04:02:16;;;;;;;11.23;7.03;;;1.70;59.80;;;;;;5026762;28;20437;-77
2022/12/18 04:05:04;;;;;;;10.20;7.38;;;1.80;60.00;;;;;;5017762;28;20477;-77
2022/12/18 04:07:53;;;;;;;9.95;7.15;;;1.80;60.00;;;;;;5026752;28;20052;-76
2022/12/18 04:10:39;;;;;;;11.90;8.02;;;1.80;60.00;;;;;;5026780;28;20044;-77
2022/12/18 04:13:29;;;;;;;8.90;7.32;;;1.90;60.10;;;;;;5017703;28;20044;-77
2022/12/18 04:16:15;;;;;;;12.07;7.72;;;1.90;60.10;;;;;;5022250;28;20109;-76
2022/12/18 04:19:01;;;;;;;12.45;7.20;;;2.00;60.30;;;;;;5022227;28;20103;-77
2022/12/18 04:21:49;;;;;;;12.93;8.38;;;2.00;60.30;;;;;;5005757;28;20048;-75
2022/12/18 04:24:34;;;;;;;10.73;7.57;;;2.00;60.20;;;;;;5012106;28;20040;-76
2022/12/18 04:27:34;;;;;;;9.80;7.20;;;2.00;60.20;;;;;;5027447;28;20690;-76
2022/12/18 04:30:20;;;;;;;11.05;8.20;;;2.00;60.20;;;;;;5016134;28;20033;-77
2022/12/18 04:33:09;;;;;;;11.70;8.13;;;2.10;60.40;;;;;;5023886;28;20048;-77
2022/12/18 04:35:53;;;;;;;10.30;8.00;;;2.10;60.40;;;;;;5025074;28;20408;-77
2022/12/18 04:38:38;;;;;;;9.73;8.05;;;2.10;60.40;;;;;;5025975;28;20187;-77
2022/12/18 04:41:26;;;;;;;10.65;7.38;;;2.20;60.50;;;;;;5026142;28;20079;-77
2022/12/18 04:44:11;;;;;;;9.32;7.72;;;2.20;60.50;;;;;;5014382;28;20040;-75
2022/12/18 04:46:56;;;;;;;9.23;7.60;;;2.20;60.50;;;;;;5027278;28;20196;-77
2022/12/18 04:49:41;;;;;;;13.25;9.15;;;2.20;60.50;;;;;;5020280;28;20611;-77
2022/12/18 04:52:26;;;;;;;11.40;7.10;;;2.30;60.70;;;;;;5015898;28;20080;-75
2022/12/18 04:55:11;;;;;;;14.40;8.40;;;2.30;60.70;;;;;;5024689;28;20063;-77
2022/12/18 04:57:55;;;;;;;11.95;8.40;;;2.30;60.70;;;;;;5014450;28;20165;-77
2022/12/18 05:00:40;;;;;;;10.23;8.20;;;2.30;60.70;;;;;;5026637;28;20076;-76
2022/12/18 05:03:24;;;;;;;9.82;7.57;;;2.30;60.70;;;;;;5014661;28;20049;-75
2022/12/18 05:06:09;;;;;;;10.18;8.30;;;2.40;60.90;;;;;;5025731;28;20128;-76
2022/12/18 05:08:54;;;;;;;9.32;7.75;;;2.40;60.90;;;;;;5021433;28;20488;-76
2022/12/18 05:11:39;;;;;;;11.23;8.30;;;2.40;60.80;;;;;;4999974;28;20043;-75
2022/12/18 05:14:23;;;;;;;11.45;8.15;;;2.40;60.80;;;;;;5025520;28;20072;-75
2022/12/18 05:17:08;;;;;;;14.25;9.00;;;2.50;61.00;;;;;;5019934;28;20126;-75
2022/12/18 05:19:53;;;;;;;13.88;8.38;;;2.50;61.00;;;;;;5025104;28;20045;-75
2022/12/18 05:22:37;;;;;;;11.45;8.23;;;2.50;60.90;;;;;;5017710;28;20044;-76
2022/12/18 05:25:23;;;;;;;13.13;8.40;;;2.50;60.90;;;;;;5026979;28;20041;-76
2022/12/18 05:28:07;;;;;;;12.88;8.55;;;2.60;61.10;;;;;;5022977;28;20123;-76
2022/12/18 05:30:57;;;;;;;11.55;8.13;;;2.60;61.10;;;;;;5026513;28;20095;-76
2022/12/18 05:33:41;;;;;;;13.48;8.25;;;2.60;61.10;;;;;;5034381;28;20546;-75
2022/12/18 05:36:26;;;;;;;11.85;8.32;;;2.60;61.10;;;;;;5018444;28;20044;-74
2022/12/18 05:39:10;;;;;;;12.95;9.40;;;2.60;61.00;;;;;;5014237;28;20082;-76
2022/12/18 05:41:55;;;;;;;11.23;8.90;;;2.70;61.20;;;;;;5027170;28;20072;-75
2022/12/18 05:44:40;;;;;;;11.02;8.02;;;2.70;61.20;;;;;;5022074;28;20091;-75
2022/12/18 05:47:24;;;;;;;12.52;8.98;;;2.70;61.20;;;;;;4993277;28;20053;-75
2022/12/18 05:50:09;;;;;;;12.75;8.95;;;2.70;61.20;;;;;;5020087;28;20224;-74
2022/12/18 05:52:53;;;;;;;10.40;8.02;;;2.80;61.40;;;;;;5019931;28;20076;-75
2022/12/18 05:55:40;;;;;;;11.15;8.55;;;2.80;61.40;;;;;;5020213;28;20037;-75
2022/12/18 05:58:25;;;;;;;14.43;9.07;;;2.80;61.40;;;;;;5020834;28;20596;-75
2022/12/18 06:01:17;;;;;;;11.15;8.40;;;2.80;61.30;;;;;;5021493;28;20091;-75
2022/12/18 06:04:02;;;;;;;13.23;8.65;;;2.80;61.30;;;;;;5021329;28;20036;-75
2022/12/18 06:06:46;;;;;;;12.80;8.40;;;2.80;61.30;;;;;;5015684;28;20044;-75
2022/12/18 06:09:32;;;;;;;11.73;8.13;;;2.90;61.50;;;;;;5021861;28;20130;-75
2022/12/18 06:12:16;;;;;;;11.25;8.50;;;2.90;61.50;;;;;;5020893;28;20659;-75
2022/12/18 06:15:01;;;;;;;13.50;9.07;;;2.90;61.40;;;;;;5017755;28;20037;-75
2022/12/18 06:17:46;;;;;;;11.95;8.95;;;3.00;61.60;;;;;;5019470;28;20133;-75
2022/12/18 06:20:31;;;;;;;13.45;8.45;;;3.00;61.60;;;;;;5021902;28;20135;-75
2022/12/18 06:23:15;;;;;;;13.20;8.95;;;3.00;61.50;;;;;;5019599;28;20131;-75
2022/12/18 06:26:05;;;;;;;12.05;9.50;;;3.10;61.70;;;;;;5021372;28;20052;-74
2022/12/18 06:28:49;;;;;;;12.82;10.25;;;3.10;61.70;;;;;;5009443;28;20238;-75
2022/12/18 06:31:33;;;;;;;11.23;8.77;;;3.10;61.70;;;;;;5006453;28;20044;-75
2022/12/18 06:34:18;;;;;;;14.38;10.07;;;3.10;62.10;;;;;;5029603;28;20116;-75
2022/12/18 06:37:03;;;;;;;14.55;9.43;;;3.10;61.60;;;;;;5022646;28;20184;-75
2022/12/18 06:39:47;;;;;;;13.68;10.80;;;3.20;61.80;;;;;;5024384;28;20122;-76
2022/12/18 06:42:32;;;;;;;16.05;9.80;;;3.20;61.70;;;;;;5017294;28;20539;-76
2022/12/18 06:45:17;;;;;;;12.55;10.60;;;3.20;61.70;;;;;;5023299;28;20117;-76
2022/12/18 06:48:01;;;;;;;12.70;10.38;;;3.30;61.90;;;;;;5022987;28;20430;-76
2022/12/18 06:50:46;;;;;;;12.93;9.05;;;3.20;61.70;;;;;;5008640;28;20545;-76
2022/12/18 06:53:32;;;;;;;14.68;10.30;;;3.30;61.90;;;;;;5020629;28;20107;-74
2022/12/18 06:56:17;;;;;;;14.15;10.40;;;3.30;61.90;;;;;;5024265;28;20088;-75
2022/12/18 06:59:01;;;;;;;15.10;10.10;;;3.30;61.80;;;;;;5017342;28;20044;-75
2022/12/18 07:01:46;;;;;;;14.10;10.15;;;3.30;61.80;;;;;;5020279;28;20581;-76
2022/12/18 07:04:31;;;;;;;12.93;8.95;;;3.40;62.00;;;;;;5006925;28;20462;-76
2022/12/18 07:07:16;;;;;;;16.98;10.07;;;3.40;61.90;;;;;;5023882;28;20059;-76
2022/12/18 07:10:00;;;;;;;13.80;8.95;;;3.40;62.00;;;;;;5012172;28;20400;-75
2022/12/18 07:12:45;;;;;;;14.55;10.00;;;3.40;62.00;;;;;;5024232;28;20044;-77
2022/12/18 07:15:29;;;;;;;14.88;9.63;;;3.40;62.00;;;;;;5024898;28;20401;-75
2022/12/18 07:18:14;;;;;;;11.60;9.07;;;3.40;61.90;;;;;;5023157;28;20037;-76
2022/12/18 07:21:03;;;;;;;12.25;9.73;;;3.50;62.10;;;;;;5011970;28;20043;-76
2022/12/18 07:23:48;;;;;;;13.40;9.35;;;3.50;62.10;;;;;;5018071;28;20148;-76
2022/12/18 07:26:32;;;;;;;10.70;8.32;;;3.50;62.10;;;;;;5024187;28;20417;-75
2022/12/18 07:29:17;;;;;;;14.27;8.75;;;3.60;62.30;;;;;;5012964;28;20545;-74
2022/12/18 07:32:02;;;;;;;10.65;8.45;;;3.60;62.20;;;;;;5021603;28;20036;-74
2022/12/18 07:34:46;;;;;;;12.52;8.23;;;3.60;62.20;;;;;;5017654;28;20044;-74
2022/12/18 07:37:31;;;;;;;11.45;8.23;;;3.60;62.10;;;;;;5006537;28;20597;-75
2022/12/18 07:40:16;;;;;;;12.93;8.98;;;3.70;62.30;;;;;;5023708;28;20048;-74
2022/12/18 07:43:00;;;;;;;10.13;7.90;;;3.70;62.30;;;;;;5008521;28;20111;-75
2022/12/18 07:45:45;;;;;;;12.57;9.15;;;3.70;62.30;;;;;;5024122;28;20037;-77
2022/12/18 07:48:30;;;;;;;10.55;7.90;;;3.80;62.40;;;;;;5019422;28;20056;-81
2022/12/18 07:51:14;;;;;;;10.55;8.65;;;3.80;62.40;;;;;;5017666;28;20036;-83
2022/12/18 07:53:59;;;;;;;12.45;7.80;;;3.80;62.30;;;;;;5009096;28;20060;-78
2022/12/18 07:56:44;;;;;;;10.95;8.75;;;3.80;62.30;;;;;;4995125;28;20228;-80
2022/12/18 07:59:29;;;;;;;10.60;7.72;;;3.90;62.50;;;;;;5012125;28;20040;-78
2022/12/18 08:02:14;;;;;;;11.52;8.45;;;3.90;62.50;;;;;;5015543;28;20048;-80
2022/12/18 08:04:59;;;;;;;12.73;7.20;;;4.00;62.70;;;;;;5013310;28;20041;-78
2022/12/18 08:07:43;;;;;;;12.23;7.63;;;4.10;62.80;;;;;;5004716;28;20508;-81
2022/12/18 08:10:28;;;;;;;10.48;8.43;;;4.10;62.70;;;;;;5024822;28;20099;-81
2022/12/18 08:13:13;;;;;;;10.27;7.55;;;4.10;62.70;;;;;;4997020;28;20139;-82
2022/12/18 08:16:05;;;;;;;10.73;7.90;;;4.20;62.80;;;;;;5007429;28;20032;-75
2022/12/18 08:18:51;;;;;;;10.20;7.60;;;4.10;62.60;;;;;;5015437;28;20052;-75
2022/12/18 08:21:37;;;;;;;10.10;6.97;;;4.10;62.60;;;;;;5023528;28;20088;-74
2022/12/18 08:24:21;;;;;;;11.23;7.78;;;4.10;62.60;;;;;;5007659;28;20079;-84
2022/12/18 08:27:06;;;;;;;12.20;9.05;;;4.20;62.80;;;;;;5007304;28;20471;-79
2022/12/18 08:29:50;;;;;;;10.90;8.52;;;4.10;62.60;;;;;;5009656;28;20094;-80
2022/12/18 08:32:35;;;;;;;12.13;8.30;;;4.20;62.80;;;;;;5025066;28;20379;-78
2022/12/18 08:35:19;;;;;;;10.35;8.52;;;4.10;62.60;;;;;;5009958;28;20106;-78
2022/12/18 08:38:04;;;;;;;8.80;7.20;;;4.20;62.80;;;;;;5017125;28;20040;-79
2022/12/18 08:40:49;;;;;;;11.98;9.13;;;4.10;62.60;;;;;;5007392;28;20041;-78
2022/12/18 08:46:39;;;;;;;10.65;8.80;;;4.20;62.80;;;;;;5021724;28;20456;-76
2022/12/18 08:49:23;;;;;;;13.23;9.13;;;4.20;63.00;;;;;;5017546;28;20055;-76
2022/12/18 08:52:08;;;;;;;14.18;8.75;;;4.30;63.20;;;;;;5010992;28;20044;-77
2022/12/18 08:54:53;;;;;;;13.68;10.02;;;4.40;63.30;;;;;;5022167;28;20071;-77
2022/12/18 08:57:37;;;;;;;11.57;9.30;;;4.40;63.40;;;;;;5016741;28;20080;-75
2022/12/18 09:00:22;;;;;;;18.20;9.35;;;4.40;63.30;;;;;;5010653;28;20114;-78
2022/12/18 09:03:17;;;;;;;11.10;9.00;;;4.40;63.30;;;;;;5006431;28;20045;-79
2022/12/18 09:06:02;;;;;;;14.82;9.70;;;4.40;63.30;;;;;;5017080;28;20307;-79
2022/12/18 09:08:47;;;;;;;14.77;8.10;;;4.40;63.30;;;;;;5008122;28;20453;-79
2022/12/18 09:11:32;;;;;;;13.45;9.50;;;4.40;63.30;;;;;;5009205;28;20591;-74
2022/12/18 09:14:17;;;;;;;16.13;11.40;;;4.40;63.30;;;;;;5006485;28;20516;-77
2022/12/18 09:17:01;;;;;;;14.48;10.30;;;4.40;63.30;;;;;;5017868;28;20093;-77
2022/12/18 09:19:46;;;;;;;14.73;10.30;;;4.40;63.30;;;;;;5019177;28;20467;-76
2022/12/18 09:22:31;;;;;;;12.20;9.55;;;4.40;63.30;;;;;;4994711;28;20052;-76
2022/12/18 09:25:15;;;;;;;15.18;10.13;;;4.40;63.30;;;;;;5019989;28;20099;-77
2022/12/18 09:28:00;;;;;;;15.45;11.05;;;4.40;63.30;;;;;;4994979;28;20630;-85
2022/12/18 09:30:49;;;;;;;13.05;9.90;;;4.40;63.30;;;;;;5009222;28;20043;-85
2022/12/18 09:33:37;;;;;;;13.18;10.27;;;4.40;63.30;;;;;;5015788;28;20040;-83
2022/12/18 09:36:21;;;;;;;12.75;9.77;;;4.40;63.30;;;;;;5022962;28;20036;-79
2022/12/18 09:39:06;;;;;;;14.63;10.95;;;4.40;63.60;;;;;;5015683;28;20059;-80
2022/12/18 09:41:53;;;;;;;13.35;10.48;;;4.40;63.30;;;;;;5016744;28;20060;-76
2022/12/18 09:44:46;;;;;;;12.45;9.70;;;4.50;63.50;;;;;;5019306;28;20048;-79
2022/12/18 09:47:37;;;;;;;15.23;10.45;;;4.50;63.50;;;;;;4988205;28;20092;-78
2022/12/18 09:50:39;;;;;;;13.90;9.93;;;4.50;63.50;;;;;;5021897;28;20171;-82
2022/12/18 09:53:30;;;;;;;13.50;9.73;;;4.50;63.40;;;;;;4991568;28;20041;-86
2022/12/18 09:56:19;;;;;;;14.88;9.65;;;4.50;63.40;;;;;;4993775;28;20140;-87
2022/12/18 09:59:04;;;;;;;14.60;11.07;;;4.60;63.50;;;;;;5007354;28;20071;-85
2022/12/18 10:01:49;;;;;;;13.02;9.27;;;4.60;63.50;;;;;;5004728;28;20410;-75
2022/12/18 10:04:33;;;;;;;12.75;9.73;;;4.60;63.40;;;;;;5022248;28;20045;-73
2022/12/18 10:07:33;;;;;;;18.38;11.30;;;4.60;63.40;;;;;;5022942;28;20036;-82
2022/12/18 10:10:38;;;;;;;13.80;10.13;;;4.70;63.60;;;;;;5011844;28;20091;-80
2022/12/18 10:13:37;;;;;;;17.40;10.30;;;4.70;63.70;;;;;;5009708;28;20071;-83
2022/12/18 10:16:33;;;;;;;16.45;10.88;;;4.80;63.80;;;;;;5010601;28;20091;-81
2022/12/18 10:19:22;;;;;;;15.55;11.15;;;4.80;63.70;;;;;;5008573;28;20033;-82
2022/12/18 10:22:30;;;;;;;15.25;10.45;;;4.90;63.90;;;;;;5010250;28;20183;-93
2022/12/18 10:25:25;;;;;;;15.90;10.25;;;4.90;63.90;;;;;;5028862;28;20504;-86
2022/12/18 10:28:15;;;;;;;14.90;10.13;;;4.90;63.90;;;;;;5007083;28;20092;-82
2022/12/18 10:30:59;;;;;;;15.18;10.82;;;5.00;64.10;;;;;;5013011;28;20045;-81
2022/12/18 10:33:44;;;;;;;15.43;10.00;;;5.00;64.10;;;;;;5013186;28;20095;-81
2022/12/18 10:36:29;;;;;;;12.32;9.65;;;5.00;64.00;;;;;;5011542;28;20107;-82
2022/12/18 10:39:22;;;;;;;16.35;10.68;;;5.10;64.20;;;;;;5016754;28;20160;-81
2022/12/18 10:42:25;;;;;;;14.32;10.30;;;5.10;64.20;;;;;;5024842;28;20079;-81
2022/12/18 10:45:14;;;;;;;16.75;10.65;;;5.10;64.20;;;;;;5004852;28;20044;-81
2022/12/18 10:47:58;;;;;;;17.00;10.85;;;5.10;64.10;;;;;;5011293;28;20111;-85
2022/12/18 10:50:48;;;;;;;13.88;9.57;;;5.20;64.20;;;;;;5010951;28;20569;-85
2022/12/18 10:53:36;;;;;;;15.48;9.90;;;5.20;64.20;;;;;;4998521;28;20418;-87
2022/12/18 10:56:21;;;;;;;14.05;10.10;;;5.30;64.40;;;;;;5014282;28;20087;-88
2022/12/18 10:59:08;;;;;;;15.10;9.98;;;5.30;64.30;;;;;;5015119;28;20052;-88
2022/12/18 11:01:57;;;;;;;12.52;10.27;;;5.30;64.30;;;;;;5006468;28;20475;-87
2022/12/18 11:04:51;;;;;;;14.70;11.00;;;5.30;64.30;;;;;;5010686;28;20048;-88
2022/12/18 11:07:46;;;;;;;;;;;5.30;64.20;;;;;;5020749;28;20040;-86
2022/12/18 11:10:37;;;;;;;13.38;10.23;;;5.40;64.40;;;;;;5008263;28;19920;-86
2022/12/18 11:13:24;;;;;;;13.70;9.90;;;5.40;64.20;;;;;;5024108;28;20493;-83
2022/12/18 11:16:20;;;;;;;18.20;11.20;;;5.40;64.20;;;;;;5015995;28;20087;-80
2022/12/18 11:19:26;;;;;;;15.55;11.30;;;5.50;64.40;;;;;;5010975;28;20044;-79
2022/12/18 11:22:21;;;;;;;12.68;10.43;;;5.50;64.40;;;;;;5011156;28;20613;-81
2022/12/18 11:25:16;;;;;;;12.95;10.23;;;5.50;64.40;;;;;;5017500;28;20052;-83
2022/12/18 11:28:27;;;;;;;12.10;9.52;;;5.60;64.50;;;;;;5009004;28;20338;-81
2022/12/18 11:31:14;;;;;;;12.80;9.60;;;5.60;64.50;;;;;;5009281;28;20064;-84
2022/12/18 11:34:22;;;;;;;12.60;9.35;;;5.70;64.50;;;;;;5022763;28;20041;-83
2022/12/18 11:37:09;;;;;;;13.30;9.93;;;5.70;64.50;;;;;;5008202;28;20064;-81
2022/12/18 11:40:18;;;;;;;10.07;8.70;;;5.80;64.60;;;;;;5019298;28;20137;-81
2022/12/18 11:43:14;;;;;;;13.07;9.85;;;5.80;64.50;;;;;;5007653;28;20516;-80
2022/12/18 11:46:07;;;;;;;12.95;9.15;;;5.90;64.70;;;;;;5023062;28;20098;-84
2022/12/18 11:49:03;;;;;;;12.80;9.77;;;6.00;64.80;;;;;;4993876;28;20528;-84
2022/12/18 11:51:50;;;;;;;13.20;10.10;;;6.00;64.70;;;;;;5021183;28;20412;-83
2022/12/18 11:54:35;;;;;;;11.18;8.80;;;6.00;64.70;;;;;;5005056;28;20039;-82
2022/12/18 11:57:41;;;;;;;14.27;10.80;;;6.10;64.80;;;;;;4999588;28;20126;-82
2022/12/18 12:00:25;;;;;;;13.18;9.20;;;6.10;64.80;;;;;;5022166;28;20464;-81
2022/12/18 12:03:10;;;;;;;11.93;9.38;;;6.20;64.90;;;;;;4993452;28;20047;-82
2022/12/18 12:06:07;;;;;;;13.30;10.25;;;6.20;64.90;;;;;;5024151;28;20057;-83
2022/12/18 12:09:04;;;;;;;12.27;10.23;;;6.20;64.90;;;;;;5014999;28;20037;-82
2022/12/18 12:11:48;;;;;;;11.07;9.57;;;6.20;64.90;;;;;;5022990;28;20465;-85
2022/12/18 12:14:47;;;;;;;12.77;9.38;;;6.30;65.10;;;;;;5022913;28;20151;-85
2022/12/18 12:17:51;;;;;;;10.90;8.07;;;6.30;65.10;;;;;;4990512;28;20049;-83
2022/12/18 12:21:02;;;;;;;14.65;7.68;;;6.40;65.30;;;;;;5023079;28;20099;-83
2022/12/18 12:23:58;;;;;;;9.50;8.18;;;6.40;65.50;;;;;;5029154;28;20060;-82
2022/12/18 12:27:05;;;;;;;9.55;8.50;;;6.60;65.70;;;;;;5031233;28;20109;-80
2022/12/18 12:30:02;;;;;;;10.57;7.75;;;6.60;65.60;;;;;;5026745;28;20070;-82
2022/12/18 12:33:12;;;;;;;8.13;6.93;;;6.60;65.60;;;;;;5032614;28;20047;-80
2022/12/18 12:36:19;;;;;;;8.73;7.80;;;6.70;65.80;;;;;;5029471;28;20040;-80
2022/12/18 12:39:17;;;;;;;8.40;7.18;;;6.70;65.90;;;;;;5009408;28;20040;-80
2022/12/18 12:45:18;;;;;;;7.47;6.47;;;6.80;66.10;;;;;;5025688;28;20068;-81
2022/12/18 12:48:06;;;;;;;6.70;5.95;;;6.70;65.90;;;;;;4995394;28;20076;-79
2022/12/18 12:50:52;;;;;;;7.10;5.88;;;6.80;66.10;;;;;;5015104;28;20107;-81
2022/12/18 12:53:38;;;;;;;7.07;5.65;;;6.80;66.10;;;;;;4990274;28;20079;-81
2022/12/18 12:56:44;;;;;;;7.70;5.78;;;6.90;66.30;;;;;;5021294;28;20044;-83
2022/12/18 12:59:41;;;;;;;6.18;5.57;;;6.90;66.30;;;;;;5022634;28;20578;-80
2022/12/18 13:02:56;;;;;;;5.22;4.72;;;6.90;66.30;;;;;;5025993;28;20049;-81
2022/12/18 13:05:50;;;;;;;6.28;5.30;;;6.90;66.30;;;;;;4998961;28;20128;-82
2022/12/18 13:08:54;;;;;;;6.70;5.28;;;6.90;66.20;;;;;;5012567;28;20060;-81
2022/12/18 13:14:45;;;;;;;5.00;4.35;;;7.00;66.40;;;;;;5022949;28;20519;-87
2022/12/18 13:17:31;;;;;;;5.50;4.68;;;7.00;66.40;;;;;;5004048;28;20072;-87
2022/12/18 13:20:16;;;;;;;5.82;4.35;;;7.00;66.40;;;;;;5013703;28;20144;-78
2022/12/18 13:23:00;;;;;;;5.80;4.55;;;7.00;66.50;;;;;;5022252;28;20082;-78
2022/12/18 13:25:45;;;;;;;4.88;4.20;;;7.10;66.70;;;;;;5019869;28;20110;-75
2022/12/18 13:28:34;;;;;;;9.05;4.70;;;7.10;66.80;;;;;;5022602;28;20554;-77
2022/12/18 13:31:37;;;;;;;5.85;4.10;;;7.20;67.30;;;;;;5012291;28;20080;-85
2022/12/18 13:34:27;;;;;;;7.22;4.50;;;7.30;67.60;;;;;;5012861;28;20036;-85
2022/12/18 13:37:30;;;;;;;4.93;3.95;;;7.40;67.50;;;;;;5022442;28;20511;-82
2022/12/18 13:40:41;;;;;;;4.43;3.83;;;7.50;67.70;;;;;;5020154;28;20335;-81
2022/12/18 13:43:42;;;;;;;3.83;3.47;;;7.50;67.70;;;;;;5016424;28;20043;-77
2022/12/18 13:46:46;;;;;;;6.05;4.30;;;7.60;67.90;;;;;;5025876;28;20068;-76
2022/12/18 13:49:43;;;;;;;9.80;4.10;;;7.60;68.30;;;;;;5026633;28;20103;-75
2022/12/18 13:52:33;;;;;;;4.00;2.85;;;7.80;69.00;;;;;;5016399;28;20043;-75
2022/12/18 13:55:19;;;;;;;3.35;2.40;;;8.10;69.40;;;;;;5017755;28;20040;-74
2022/12/18 13:58:05;;;;;;;3.78;1.83;;;8.40;69.60;;;;;;5026342;28;20068;-74
2022/12/18 14:00:50;;;;;;;2.50;2.30;;;8.80;69.80;;;;;;5018640;28;20132;-74
2022/12/18 14:03:34;;;;;;;9.82;1.67;;;9.10;69.80;;;;;;5026401;28;20295;-74
2022/12/18 14:06:20;;;;;;;2.28;1.52;;;9.40;69.80;;;;;;5023412;28;20518;-75
2022/12/18 14:09:04;;;;;;;1.95;1.27;;;9.70;69.70;;;;;;5024706;28;20060;-74
2022/12/18 14:11:50;;;;;;;1.67;1.23;;;10.00;69.70;;;;;;5002015;28;20094;-74
2022/12/18 14:14:35;;;;;;;3.33;1.17;;;10.30;69.70;;;;;;5023895;28;20091;-75
2022/12/18 14:17:20;;;;;;;1.23;1.00;;;10.60;69.60;;;;;;5010947;28;20107;-75
2022/12/18 14:20:12;;;;;;;2.60;1.35;;;10.80;69.50;;;;;;5018677;28;20055;-75
2022/12/18 14:22:57;;;;;;;0.80;0.80;;;11.00;69.40;;;;;;5024879;28;20106;-74
2022/12/18 14:25:46;;;;;;;1.50;1.17;;;11.20;69.30;;;;;;5025599;28;20274;-76
2022/12/18 14:28:30;;;;;;;0.80;0.80;;;11.50;69.40;;;;;;5019184;28;20044;-76
2022/12/18 14:31:24;;;;;;;0.85;0.80;;;11.60;69.00;;;;;;5000361;28;20400;-75
2022/12/18 14:34:15;;;;;;;3.53;0.73;;;11.70;68.90;;;;;;5017061;28;20079;-75
2022/12/18 14:37:00;;;;;;;1.80;0.60;;;11.70;69.00;;;;;;5008267;28;20079;-75
2022/12/18 14:39:54;;;;;;;1.75;0.60;;;11.90;69.20;;;;;;5023033;28;20365;-75
2022/12/18 14:42:40;;;;;;;2.78;0.70;;;12.10;69.30;;;;;;5014925;28;20622;-75
2022/12/18 14:45:35;;;;;;;1.25;0.70;;;12.30;69.20;;;;;;5007378;28;20052;-75
2022/12/18 14:48:38;;;;;;;0.80;0.45;;;12.40;68.90;;;;;;5014066;28;20095;-75
2022/12/18 14:51:27;;;;;;;0.70;0.60;;;12.70;68.90;;;;;;5020041;28;20211;-74
2022/12/18 14:54:17;;;;;;;0.70;0.50;;;12.90;68.70;;;;;;5006004;28;20476;-75